createdAt,value
2022-11-17T00:00:12.398Z,98684.72
2022-11-17T00:02:39.695Z,98678.66
2022-11-17T00:05:07.182Z,98674.38
2022-11-17T00:07:34.389Z,98685.72
2022-11-17T00:10:01.801Z,98682.19
2022-11-17T00:12:47.428Z,98679.41
2022-11-17T00:15:14.485Z,98678.81
2022-11-17T00:17:41.436Z,98668.53
2022-11-17T00:20:29.554Z,98678.81
2022-11-17T00:22:56.510Z,98674.44
2022-11-17T00:25:23.640Z,98665.84
2022-11-17T00:27:50.560Z,98670.19
2022-11-17T00:30:36.049Z,98671.13
2022-11-17T00:33:23.050Z,98669.25
2022-11-17T00:35:52.355Z,98673.81
2022-11-17T00:38:19.718Z,98670.16
2022-11-17T00:40:46.991Z,98669.22
2022-11-17T00:43:13.946Z,98673.69
2022-11-17T00:45:40.896Z,98672.97
2022-11-17T00:48:07.923Z,98666.19
2022-11-17T00:50:35.121Z,98672.19
2022-11-17T00:53:02.205Z,98673.78
2022-11-17T00:55:29.370Z,98677.31
2022-11-17T00:57:56.726Z,98667.66
2022-11-17T04:17:48.432Z,98646.06
2022-11-17T04:20:16.224Z,98641.09
2022-11-17T04:22:43.420Z,98653.22
2022-11-17T04:25:30.607Z,98634.34
2022-11-17T04:28:16.547Z,98647.44
2022-11-17T04:30:43.905Z,98646.63
2022-11-17T04:33:11.427Z,98644.84
2022-11-17T04:35:38.819Z,98646.66
2022-11-17T04:38:05.992Z,98643.34
2022-11-17T04:40:53.133Z,98645.91
2022-11-17T04:43:20.320Z,98658.03
2022-11-17T04:45:47.326Z,98671.94
2022-11-17T04:48:14.484Z,98680.63
2022-11-17T04:50:41.686Z,98683.28
2022-11-17T04:53:08.988Z,98676.16
2022-11-17T04:55:36.135Z,98668.63
2022-11-17T04:58:03.400Z,98666.84
2022-11-17T05:00:30.613Z,98668.47
2022-11-17T05:02:59.724Z,98671.94
2022-11-17T05:05:26.968Z,98671.78
2022-11-17T05:07:54.282Z,98683.13
2022-11-17T05:10:41.805Z,98681.22
2022-11-17T05:13:21.859Z,98689.94
2022-11-17T05:16:15.363Z,98695.97
2022-11-17T05:18:43.941Z,98684.81
2022-11-17T05:21:11.777Z,98701.22
2022-11-17T05:23:54.223Z,98706.38
2022-11-17T05:26:24.651Z,98712.56
2022-11-17T05:28:52.502Z,98721.19
2022-11-17T05:31:19.938Z,98734.00
2022-11-17T05:33:47.594Z,98729.63
2022-11-17T05:36:15.258Z,98730.59
2022-11-17T05:38:42.631Z,98730.63
2022-11-17T05:41:10.067Z,98732.34
2022-11-17T05:43:37.671Z,98721.16
2022-11-17T05:46:05.409Z,98720.28
2022-11-17T05:48:34.035Z,98719.28
2022-11-17T05:51:01.960Z,98708.22
2022-11-17T05:53:30.383Z,98718.56
2022-11-17T05:56:16.018Z,98707.28
2022-11-17T05:58:47.403Z,98697.13
2022-11-17T06:01:17.230Z,98688.41
2022-11-17T06:03:52.505Z,98692.66
2022-11-17T06:06:21.174Z,98695.28
2022-11-17T06:08:48.650Z,98687.66
2022-11-17T06:11:17.141Z,98691.25
2022-11-17T06:13:44.560Z,98695.47
2022-11-17T06:16:14.120Z,98698.94
2022-11-17T06:18:49.010Z,98686.84
2022-11-17T06:21:17.534Z,98699.69
2022-11-17T06:23:47.226Z,98703.28
2022-11-17T06:26:15.453Z,98694.63
2022-11-17T06:28:46.136Z,98695.53
2022-11-17T06:31:14.741Z,98689.31
2022-11-17T06:33:42.369Z,98683.38
2022-11-17T06:36:10.309Z,98684.22
2022-11-17T06:38:37.501Z,98681.75
2022-11-17T06:41:10.584Z,98681.78
2022-11-17T06:43:39.216Z,98680.84
2022-11-17T06:46:06.455Z,98683.44
2022-11-17T06:48:36.326Z,98678.97
2022-11-17T06:51:05.019Z,98687.56
2022-11-17T06:53:33.952Z,98683.22
2022-11-17T06:56:02.161Z,98684.00
2022-11-17T06:58:30.086Z,98678.84
2022-11-17T07:01:14.893Z,98680.41
2022-11-17T07:03:45.371Z,98677.75
2022-11-17T07:06:12.870Z,98675.09
2022-11-17T07:08:40.217Z,98684.75
2022-11-17T07:11:10.387Z,98689.25
2022-11-17T07:13:39.037Z,98689.31
2022-11-17T07:16:12.995Z,98683.19
2022-11-17T07:18:44.139Z,98688.25
2022-11-17T07:21:14.219Z,98692.63
2022-11-17T07:23:43.544Z,98690.69
2022-11-17T07:26:11.238Z,98685.59
2022-11-17T07:28:38.788Z,98693.59
2022-11-17T07:31:08.892Z,98697.06
2022-11-17T07:33:37.398Z,98690.13
2022-11-17T07:36:10.461Z,98698.03
2022-11-17T07:38:40.189Z,98700.81
2022-11-17T07:41:10.012Z,98702.34
2022-11-17T07:43:38.004Z,98700.63
2022-11-17T07:46:06.116Z,98694.50
2022-11-17T07:48:34.023Z,98703.38
2022-11-17T07:51:06.231Z,98705.16
2022-11-17T07:53:35.412Z,98704.09
2022-11-17T07:56:07.229Z,98698.88
2022-11-17T07:58:35.720Z,98703.31
2022-11-17T08:01:11.344Z,98711.16
2022-11-17T08:03:38.966Z,98701.59
2022-11-17T08:06:08.020Z,98688.69
2022-11-17T08:08:36.079Z,98685.28
2022-11-17T08:11:06.205Z,98684.97
2022-11-17T08:13:34.372Z,98691.97
2022-11-17T08:16:01.984Z,98695.59
2022-11-17T08:18:30.472Z,98680.94
2022-11-17T08:21:02.915Z,98687.72
2022-11-17T08:23:30.007Z,98678.16
2022-11-17T08:25:57.676Z,98681.69
2022-11-17T08:28:25.471Z,98686.00
2022-11-17T08:30:53.454Z,98693.56
2022-11-17T08:33:20.748Z,98688.38
2022-11-17T08:35:48.257Z,98686.59
2022-11-17T08:38:18.565Z,98672.66
2022-11-17T08:40:47.970Z,98672.50
2022-11-17T08:43:16.098Z,98671.44
2022-11-17T08:45:43.620Z,98681.66
2022-11-17T08:48:10.924Z,98683.38
2022-11-17T08:50:38.233Z,98671.34
2022-11-17T08:53:05.679Z,98676.41
2022-11-17T08:55:40.915Z,98670.31
2022-11-17T08:58:09.456Z,98670.44
2022-11-17T09:00:36.929Z,98663.63
2022-11-17T09:03:08.801Z,98668.06
2022-11-17T09:05:44.548Z,98658.56
2022-11-17T09:08:56.251Z,98653.28
2022-11-17T09:11:08.583Z,98655.03
2022-11-17T09:13:36.356Z,98654.25
2022-11-17T09:16:08.903Z,98662.69
2022-11-17T09:18:38.572Z,98654.84
2022-11-17T09:21:16.506Z,98660.00
2022-11-17T09:23:44.232Z,98654.38
2022-11-17T09:26:16.433Z,98650.78
2022-11-17T09:28:45.007Z,98654.16
2022-11-17T09:31:21.413Z,98649.03
2022-11-17T09:33:49.060Z,98637.06
2022-11-17T09:36:17.102Z,98628.53
2022-11-17T09:38:44.693Z,98634.00
2022-11-17T09:41:46.375Z,98629.53
2022-11-17T09:44:19.634Z,98635.69
2022-11-17T09:46:54.438Z,98636.41
2022-11-17T09:49:40.316Z,98633.84
2022-11-17T09:52:18.429Z,98635.53
2022-11-17T09:54:55.214Z,98640.78
2022-11-17T09:57:42.547Z,98625.28
2022-11-17T10:00:18.729Z,98632.16
2022-11-17T10:02:46.600Z,98629.72
2022-11-17T10:05:34.633Z,98621.84
2022-11-17T10:08:13.220Z,98622.88
2022-11-17T10:10:47.199Z,98616.53
2022-11-17T10:13:36.656Z,98613.91
2022-11-17T10:16:12.711Z,98615.56
2022-11-17T10:18:40.481Z,98617.09
2022-11-17T14:23:12.770Z,98519.94
2022-11-17T14:25:42.945Z,98521.03
2022-11-17T14:28:16.568Z,98530.28
2022-11-17T14:30:48.166Z,98530.31
2022-11-17T14:33:16.491Z,98534.09
2022-11-17T14:35:45.780Z,98526.19
2022-11-17T14:38:18.928Z,98524.44
2022-11-17T14:40:47.145Z,98527.97
2022-11-17T14:43:15.709Z,98522.88
2022-11-17T14:45:44.360Z,98522.94
2022-11-17T14:48:17.732Z,98529.06
2022-11-17T14:50:48.296Z,98525.72
2022-11-17T14:53:17.069Z,98530.91
2022-11-17T14:55:46.787Z,98529.06
2022-11-17T14:58:16.436Z,98540.53
2022-11-17T15:00:45.440Z,98530.72
2022-11-17T15:03:14.189Z,98536.84
2022-11-17T15:05:48.812Z,98534.38
2022-11-17T15:08:18.842Z,98538.53
2022-11-17T15:10:47.426Z,98538.59
2022-11-17T15:13:16.303Z,98538.28
2022-11-17T15:15:44.831Z,98543.53
2022-11-17T15:18:17.208Z,98537.56
2022-11-17T15:20:46.372Z,98539.13
2022-11-17T15:23:19.111Z,98537.34
2022-11-17T15:25:48.313Z,98539.84
2022-11-17T15:28:22.423Z,98529.00
2022-11-17T15:30:53.595Z,98529.00
2022-11-17T15:33:22.670Z,98524.84
2022-11-17T15:36:07.170Z,98531.50
2022-11-17T15:38:36.288Z,98535.56
2022-11-17T15:41:06.279Z,98531.72
2022-11-17T15:43:39.722Z,98535.31
2022-11-17T15:46:14.057Z,98531.44
2022-11-17T15:48:45.654Z,98526.19
2022-11-17T15:51:22.101Z,98531.41
2022-11-17T15:53:52.932Z,98522.78
2022-11-17T15:56:31.824Z,98529.94
2022-11-17T15:59:09.017Z,98532.38
2022-11-17T16:01:39.913Z,98533.84
2022-11-17T16:04:14.905Z,98530.28
2022-11-17T16:06:47.741Z,98534.72
2022-11-17T16:09:19.724Z,98535.97
2022-11-17T16:11:50.423Z,98530.97
2022-11-17T16:14:20.808Z,98530.16
2022-11-17T16:16:53.192Z,98538.84
2022-11-17T16:19:23.810Z,98527.63
2022-11-17T16:21:55.843Z,98530.00
2022-11-17T16:24:29.977Z,98532.66
2022-11-17T16:26:59.348Z,98534.31
2022-11-17T16:29:33.024Z,98532.06
2022-11-17T16:32:03.770Z,98526.91
2022-11-17T16:34:32.648Z,98517.50
2022-11-17T16:37:01.771Z,98524.34
2022-11-17T16:39:36.566Z,98532.84
2022-11-17T16:42:06.434Z,98528.56
2022-11-17T16:44:36.659Z,98522.31
2022-11-17T16:47:08.027Z,98519.09
2022-11-17T16:49:46.761Z,98514.44
2022-11-17T16:52:21.235Z,98515.31
2022-11-17T16:54:53.946Z,98511.16
2022-11-17T16:57:25.440Z,98529.06
2022-11-17T16:59:55.668Z,98529.06
2022-11-17T17:02:24.883Z,98534.91
2022-11-17T17:04:52.397Z,98528.81
2022-11-17T17:07:19.436Z,98523.34
2022-11-17T17:09:46.502Z,98516.66
2022-11-17T17:12:13.669Z,98509.28
2022-11-17T17:14:40.897Z,98511.81
2022-11-17T17:17:07.820Z,98516.94
2022-11-17T17:19:35.109Z,98512.00
2022-11-17T17:22:03.247Z,98516.94
2022-11-17T17:24:30.574Z,98517.81
2022-11-17T17:26:57.745Z,98527.06
2022-11-17T17:29:24.680Z,98516.56
2022-11-17T17:31:51.756Z,98521.66
2022-11-17T17:34:18.787Z,98511.41
2022-11-17T17:36:45.828Z,98521.19
2022-11-17T17:39:15.928Z,98526.47
2022-11-17T17:41:44.636Z,98515.25
2022-11-17T17:44:17.475Z,98510.41
2022-11-17T17:46:45.754Z,98497.31
2022-11-17T17:49:13.611Z,98500.63
2022-11-17T17:51:44.306Z,98502.44
2022-11-17T17:54:24.023Z,98502.44
2022-11-17T17:56:51.359Z,98506.63
2022-11-17T17:59:19.308Z,98505.69
2022-11-17T18:01:47.903Z,98510.84
2022-11-17T18:04:16.711Z,98511.63
2022-11-17T18:06:47.247Z,98514.13
2022-11-17T18:09:19.128Z,98510.97
2022-11-17T18:11:49.672Z,98502.94
2022-11-17T18:14:20.467Z,98510.56
2022-11-17T18:16:48.082Z,98499.38
2022-11-17T18:19:15.986Z,98495.22
2022-11-17T18:21:44.013Z,98495.59
2022-11-17T18:24:12.531Z,98500.75
2022-11-17T18:26:41.218Z,98496.38
2022-11-17T18:29:19.679Z,98492.94
2022-11-17T18:31:47.860Z,98487.25
2022-11-17T18:34:18.847Z,98500.03
2022-11-17T18:36:45.926Z,98496.66
2022-11-17T18:39:13.604Z,98503.38
2022-11-17T18:41:40.983Z,98498.38
2022-11-17T18:44:08.158Z,98492.94
2022-11-17T18:46:35.202Z,98490.69
2022-11-17T18:49:02.174Z,98494.53
2022-11-17T18:51:31.303Z,98499.81
2022-11-17T18:54:00.200Z,98488.94
2022-11-17T18:56:30.930Z,98488.63
2022-11-17T18:58:57.819Z,98482.88
2022-11-17T19:01:28.078Z,98482.69
2022-11-17T19:03:57.063Z,98475.81
2022-11-17T19:06:25.200Z,98477.66
2022-11-17T19:08:53.242Z,98485.31
2022-11-17T19:11:21.837Z,98486.00
2022-11-17T19:13:48.800Z,98486.34
2022-11-17T19:16:18.395Z,98478.53
2022-11-17T19:18:46.813Z,98483.47
2022-11-17T19:21:19.033Z,98477.25
2022-11-17T19:23:51.438Z,98480.97
2022-11-17T19:26:38.212Z,98483.69
2022-11-17T19:29:15.578Z,98484.66
2022-11-17T19:31:43.975Z,98486.16
2022-11-17T19:34:11.499Z,98483.44
2022-11-17T19:36:38.555Z,98474.81
2022-11-17T19:39:05.939Z,98479.22
2022-11-17T19:41:38.355Z,98480.50
2022-11-17T19:44:07.167Z,98477.97
2022-11-17T19:46:36.240Z,98479.72
2022-11-17T19:49:03.867Z,98477.44
2022-11-17T19:51:33.433Z,98473.69
2022-11-17T19:54:07.207Z,98469.91
2022-11-17T19:56:35.409Z,98466.22
2022-11-17T19:59:03.465Z,98462.22
2022-11-17T20:01:31.700Z,98466.91
2022-11-17T20:04:00.500Z,98466.59
2022-11-17T20:06:30.515Z,98459.72
2022-11-17T20:08:57.663Z,98464.69
2022-11-17T20:11:28.936Z,98465.31
2022-11-17T20:13:56.299Z,98459.28
2022-11-17T20:16:25.449Z,98454.25
2022-11-17T20:18:54.371Z,98453.78
2022-11-17T20:21:22.120Z,98450.94
2022-11-17T20:23:49.377Z,98451.78
2022-11-17T20:26:19.011Z,98442.06
2022-11-17T20:28:46.605Z,98448.44
2022-11-17T20:31:22.669Z,98444.66
2022-11-17T20:33:49.487Z,98432.63
2022-11-17T20:36:18.891Z,98428.94
2022-11-17T20:38:50.885Z,98434.47
2022-11-17T20:41:18.246Z,98434.16
2022-11-17T20:43:48.621Z,98428.09
2022-11-17T20:46:15.522Z,98437.16
2022-11-17T20:48:42.419Z,98434.19
2022-11-17T20:51:14.689Z,98443.78
2022-11-17T20:53:42.003Z,98438.47
2022-11-17T20:56:10.806Z,98430.88
2022-11-17T20:58:38.260Z,98440.34
2022-11-17T21:01:16.409Z,98440.88
2022-11-17T21:03:43.975Z,98443.06
2022-11-17T21:06:11.904Z,98438.09
2022-11-17T21:08:40.349Z,98441.59
2022-11-17T21:11:37.325Z,98447.41
2022-11-17T21:14:05.731Z,98455.16
2022-11-17T21:16:33.765Z,98448.22
2022-11-17T21:19:00.631Z,98449.06
2022-11-17T21:21:27.698Z,98455.00
2022-11-17T21:23:55.509Z,98451.13
2022-11-17T21:26:23.229Z,98460.84
2022-11-17T21:28:50.492Z,98468.34
2022-11-17T21:31:26.236Z,98459.53
2022-11-17T21:33:58.330Z,98458.63
2022-11-17T21:36:27.898Z,98470.69
2022-11-17T21:38:55.377Z,98463.00
2022-11-17T21:41:24.984Z,98462.06
2022-11-17T21:43:53.714Z,98461.38
2022-11-17T21:46:25.561Z,98469.81
2022-11-17T21:48:53.591Z,98466.44
2022-11-17T21:51:29.022Z,98467.31
2022-11-17T21:53:57.860Z,98463.94
2022-11-17T21:56:26.914Z,98462.97
2022-11-17T21:58:58.896Z,98471.50
2022-11-17T22:01:26.330Z,98474.25
2022-11-17T22:03:53.330Z,98472.84
2022-11-17T22:06:22.947Z,98470.88
2022-11-17T22:08:50.474Z,98469.81
2022-11-17T22:11:38.486Z,98470.81
2022-11-17T22:14:05.646Z,98466.63
2022-11-17T22:16:33.320Z,98460.50
2022-11-17T22:19:00.226Z,98459.75
2022-11-17T22:21:27.071Z,98465.84
2022-11-17T22:23:53.901Z,98467.53
2022-11-17T22:26:20.679Z,98458.03
2022-11-17T22:28:52.881Z,98463.22
2022-11-17T22:31:21.926Z,98466.13
2022-11-17T22:33:50.092Z,98465.84
2022-11-17T22:36:17.371Z,98465.72
2022-11-17T22:38:44.979Z,98462.13
2022-11-17T22:41:12.930Z,98462.03
2022-11-17T22:43:39.829Z,98462.97
2022-11-17T22:46:11.761Z,98468.03
2022-11-17T22:48:38.817Z,98463.59
2022-11-17T22:51:05.968Z,98468.13
2022-11-17T22:53:33.969Z,98477.66
2022-11-17T22:56:05.905Z,98477.41
2022-11-17T22:58:33.652Z,98472.41
2022-11-17T23:01:05.570Z,98474.78
2022-11-17T23:03:32.789Z,98477.31
2022-11-17T23:06:04.042Z,98487.69
2022-11-17T23:08:31.082Z,98486.44
2022-11-17T23:11:29.617Z,98482.59
2022-11-17T23:13:48.681Z,98490.28
2022-11-17T23:16:15.949Z,98489.44
2022-11-17T23:18:42.793Z,98486.03
2022-11-17T23:21:11.160Z,98489.34
2022-11-17T23:23:40.043Z,98492.84
2022-11-17T23:26:09.829Z,98488.50
2022-11-17T23:28:37.800Z,98493.72
2022-11-17T23:31:07.099Z,98497.06
2022-11-17T23:33:36.259Z,98499.66
2022-11-17T23:36:04.598Z,98499.66
2022-11-17T23:38:32.521Z,98508.41
2022-11-17T23:41:04.306Z,98516.25
2022-11-17T23:43:31.497Z,98515.44
2022-11-17T23:46:05.765Z,98517.19
2022-11-17T23:48:32.733Z,98517.97
2022-11-17T23:51:05.045Z,98519.56
2022-11-17T23:53:32.458Z,98517.75
2022-11-17T23:56:00.421Z,98516.06
2022-11-17T23:58:28.065Z,98519.53
